Skip Navigation Links Skip Navigation Links

Current Weather

Heathrow, London

For information only: do not use for flight planning or navigation.
Latest weather
Observation time Saturday, October 21, 2017 8:20 PM BST
Local time Saturday, October 21, 2017 8:36 PM BST
Flight conditions Marginal Visual Meteorological Conditions
Winds
Wind direction Southwest (230°)
Wind speed 21 mph
Wind gusting to 32 mph
Visibility 6.2 mi.
Sky condition
Ceiling 2,300 ft. broken clouds
Cloud layer broken clouds 2,300 ft.
Cloud layer broken clouds 3,200 ft.
Temperature 55°F
Dewpoint 46°F
Altimeter 29.59 in.Hg
Derived measurements
Relative humidity 72%
Density altitude 299 ft.
Remarks
Fully automated report.
No significant changes expected in the next two hours.
METAR EGLL 211920Z AUTO 23018G28KT 9999 BKN023 BKN032 13/08 Q1002 NOSIG

Settings

Location code

InnerDrive.Weather 4.0.6144.1 Release CLR 4.0.30319.36366
Copyright ©2015 Inner Drive Technology. All rights reserved. Portions Copyright ©1986-2015 David Braverman.

Find weather

Site navigation


Skip Navigation Links

Place info

Page info

PayPal - The safer, easier way to pay online!

Return home.

Copyright ©2017 Inner Drive Technology. Purveyors of fine, hand-crafted computer software. Page printed 2017-10-21T19:36:31 UTC.